LEVX/VGO METAR and TAF weather

Enter ICAO airport designator
Station Type Date Time Source
LEVX METAR 2019/10/23 12:30 UTC NOAA

LEVX 231230Z 36008KT 280V060 9999 SCT048 15/10 Q1012 NOSIG


Station Type Date Time Source
LEVX Decoded METAR 2019/10/23 12:30 UTC NOAA

Vigo / Peinador, Spain (LEVX) 42-13N 008-38W 255M
Oct 23, 2019 - 08:30 AM EDT / 2019.10.23 1230 UTC
Wind: from the N (360 degrees) at 9 MPH (8 KT) (direction variable):0
Visibility: greater than 7 mile(s):0
Sky conditions: partly cloudy
Temperature: 59 F (15 C)
Dew Point: 50 F (10 C)
Relative Humidity: 72%
Pressure (altimeter): 29.88 in. Hg (1012 hPa)
ob: LEVX 231230Z 36008KT 280V060 9999 SCT048 15/10 Q1012 NOSIG
cycle: 12

Station Type Date Time Source
LEVX TAF 2019/10/23 12:27 UTC NOAA

TAF LEVX 231100Z 2312/2412 34009KT 9999 BKN020 TX15/2314Z TN09/2400Z
BECMG 2321/2401 19010KT BKN010 BKN014
TEMPO 2403/2412 3000 RA BKN004 PROB40
TEMPO 2406/2412 1500 RA BCFG BKN002

Example: see airport list